sensor_id;sensor_type;location;lat;lon;timestamp;pressure;altitude;pressure_sealevel;temperature;humidity
68891;BME280;55932;48.702;8.884;2022-09-24T00:02:14;95890;;;11.2;65
68891;BME280;55932;48.702;8.884;2022-09-24T00:04:44;95880;;;11.1;65
68891;BME280;55932;48.702;8.884;2022-09-24T00:07:15;95880;;;11.2;64.5
68891;BME280;55932;48.702;8.884;2022-09-24T00:09:52;95890;;;11.1;65
68891;BME280;55932;48.702;8.884;2022-09-24T00:12:23;95880;;;11;65
68891;BME280;55932;48.702;8.884;2022-09-24T00:14:54;95880;;;11;65
68891;BME280;55932;48.702;8.884;2022-09-24T00:17:18;95880;;;11;65
68891;BME280;55932;48.702;8.884;2022-09-24T00:19:49;95870;;;11.1;64.5
68891;BME280;55932;48.702;8.884;2022-09-24T00:22:20;95870;;;10.9;65
68891;BME280;55932;48.702;8.884;2022-09-24T00:24:50;95870;;;10.8;65
68891;BME280;55932;48.702;8.884;2022-09-24T00:37:24;95870;;;10.2;65.5
68891;BME280;55932;48.702;8.884;2022-09-24T00:39:55;95860;;;10.2;65.5
68891;BME280;55932;48.702;8.884;2022-09-24T00:42:46;95860;;;10.2;65.5
68891;BME280;55932;48.702;8.884;2022-09-24T00:45:10;95860;;;10.2;65.5
68891;BME280;55932;48.702;8.884;2022-09-24T00:50:41;95850;;;10;65.5
68891;BME280;55932;48.702;8.884;2022-09-24T00:52:41;95840;;;9.9;66
68891;BME280;55932;48.702;8.884;2022-09-24T00:55:04;95850;;;9.8;66
68891;BME280;55932;48.702;8.884;2022-09-24T00:57:35;95840;;;9.7;66
68891;BME280;55932;48.702;8.884;2022-09-24T01:00:06;95840;;;9.6;66
68891;BME280;55932;48.702;8.884;2022-09-24T01:07:44;95830;;;9.4;66
68891;BME280;55932;48.702;8.884;2022-09-24T01:10:46;95830;;;9.4;66
68891;BME280;55932;48.702;8.884;2022-09-24T01:12:54;95830;;;9.4;66
68891;BME280;55932;48.702;8.884;2022-09-24T01:15:31;95830;;;9.3;66
68891;BME280;55932;48.702;8.884;2022-09-24T01:18:03;95830;;;9.2;66
68891;BME280;55932;48.702;8.884;2022-09-24T01:20:19;95820;;;9.1;66
68891;BME280;55932;48.702;8.884;2022-09-24T01:25:13;95810;;;9.3;66
68891;BME280;55932;48.702;8.884;2022-09-24T01:27:44;95810;;;9.3;66
68891;BME280;55932;48.702;8.884;2022-09-24T01:30:11;95800;;;9.2;66
68891;BME280;55932;48.702;8.884;2022-09-24T01:37:36;95790;;;9.1;66
68891;BME280;55932;48.702;8.884;2022-09-24T01:40:07;95790;;;9.2;66
68891;BME280;55932;48.702;8.884;2022-09-24T01:42:37;95800;;;9.2;66
68891;BME280;55932;48.702;8.884;2022-09-24T01:45:08;95790;;;9.3;65.5
68891;BME280;55932;48.702;8.884;2022-09-24T01:47:39;95790;;;9.3;65.5
68891;BME280;55932;48.702;8.884;2022-09-24T01:50:11;95780;;;9.3;65.5
68891;BME280;55932;48.702;8.884;2022-09-24T01:52:49;95780;;;9.3;66
68891;BME280;55932;48.702;8.884;2022-09-24T01:55:12;95780;;;9.3;65.5
68891;BME280;55932;48.702;8.884;2022-09-24T01:57:43;95780;;;9.3;66
68891;BME280;55932;48.702;8.884;2022-09-24T02:07:54;95770;;;9.5;65.5
68891;BME280;55932;48.702;8.884;2022-09-24T02:10:22;95770;;;9.6;65.5
68891;BME280;55932;48.702;8.884;2022-09-24T02:12:55;95770;;;9.6;65.5
68891;BME280;55932;48.702;8.884;2022-09-24T02:15:26;95780;;;9.6;65.5
68891;BME280;55932;48.702;8.884;2022-09-24T02:17:56;95780;;;9.6;65.5
68891;BME280;55932;48.702;8.884;2022-09-24T02:20:26;95780;;;9.7;65.5
68891;BME280;55932;48.702;8.884;2022-09-24T02:22:57;95780;;;9.7;65.5
68891;BME280;55932;48.702;8.884;2022-09-24T02:25:24;95780;;;9.8;65.5
68891;BME280;55932;48.702;8.884;2022-09-24T02:27:52;95770;;;9.9;65.5
68891;BME280;55932;48.702;8.884;2022-09-24T02:35:24;95760;;;9.9;65
68891;BME280;55932;48.702;8.884;2022-09-24T02:37:55;95760;;;9.9;65
68891;BME280;55932;48.702;8.884;2022-09-24T02:43:10;95770;;;10;65
68891;BME280;55932;48.702;8.884;2022-09-24T02:45:53;95770;;;10;65
68891;BME280;55932;48.702;8.884;2022-09-24T02:53:00;95770;;;10.2;65
68891;BME280;55932;48.702;8.884;2022-09-24T03:00:52;95760;;;10.1;65
68891;BME280;55932;48.702;8.884;2022-09-24T03:03:28;95750;;;10.3;65
68891;BME280;55932;48.702;8.884;2022-09-24T03:08:09;95740;;;10.1;65
68891;BME280;55932;48.702;8.884;2022-09-24T03:10:44;95740;;;9.9;65.5
68891;BME280;55932;48.702;8.884;2022-09-24T03:15:49;95740;;;10;65.5
68891;BME280;55932;48.702;8.884;2022-09-24T03:23:21;95740;;;10;65.5
68891;BME280;55932;48.702;8.884;2022-09-24T03:25:51;95740;;;10;65.5
68891;BME280;55932;48.702;8.884;2022-09-24T03:28:15;95730;;;10.1;65.5
68891;BME280;55932;48.702;8.884;2022-09-24T03:30:46;95730;;;10.2;65
68891;BME280;55932;48.702;8.884;2022-09-24T03:33:40;95730;;;10.2;65
68891;BME280;55932;48.702;8.884;2022-09-24T03:41:10;95730;;;10.1;65.5
68891;BME280;55932;48.702;8.884;2022-09-24T03:43:26;95730;;;10.1;65
68891;BME280;55932;48.702;8.884;2022-09-24T03:48:21;95730;;;10.1;65
68891;BME280;55932;48.702;8.884;2022-09-24T03:50:52;95730;;;10.2;65
68891;BME280;55932;48.702;8.884;2022-09-24T03:53:23;95730;;;10.3;65
68891;BME280;55932;48.702;8.884;2022-09-24T03:55:51;95720;;;10.4;65
68891;BME280;55932;48.702;8.884;2022-09-24T04:03:21;95720;;;10.9;64.5
68891;BME280;55932;48.702;8.884;2022-09-24T04:05:50;95730;;;10.9;64.5
68891;BME280;55932;48.702;8.884;2022-09-24T04:08:22;95720;;;10.9;64.5
68891;BME280;55932;48.702;8.884;2022-09-24T04:10:52;95710;;;11;64.5
68891;BME280;55932;48.702;8.884;2022-09-24T04:16:00;95720;;;11.1;64.5
68891;BME280;55932;48.702;8.884;2022-09-24T04:18:31;95710;;;11.2;64.5
68891;BME280;55932;48.702;8.884;2022-09-24T04:21:02;95710;;;11.2;64.5
68891;BME280;55932;48.702;8.884;2022-09-24T04:23:39;95710;;;11.2;64.5
68891;BME280;55932;48.702;8.884;2022-09-24T04:25:57;95710;;;11.2;64.5
68891;BME280;55932;48.702;8.884;2022-09-24T04:33:30;95690;;;11.1;64.5
68891;BME280;55932;48.702;8.884;2022-09-24T04:36:00;95700;;;11.1;64.5
68891;BME280;55932;48.702;8.884;2022-09-24T04:38:31;95700;;;11.1;64.5
68891;BME280;55932;48.702;8.884;2022-09-24T04:43:38;95700;;;10.9;65
68891;BME280;55932;48.702;8.884;2022-09-24T04:46:09;95700;;;10.7;65.5
68891;BME280;55932;48.702;8.884;2022-09-24T04:51:05;95690;;;10.8;65
68891;BME280;55932;48.702;8.884;2022-09-24T04:53:35;95690;;;10.9;65
68891;BME280;55932;48.702;8.884;2022-09-24T05:01:08;95690;;;11;65
68891;BME280;55932;48.702;8.884;2022-09-24T05:03:38;95690;;;11;65
68891;BME280;55932;48.702;8.884;2022-09-24T05:06:09;95700;;;11;65
68891;BME280;55932;48.702;8.884;2022-09-24T05:08:40;95700;;;11.1;65
68891;BME280;55932;48.702;8.884;2022-09-24T05:11:17;95700;;;11.1;65
68891;BME280;55932;48.702;8.884;2022-09-24T05:16:19;95700;;;11.1;65
68891;BME280;55932;48.702;8.884;2022-09-24T05:18:50;95700;;;11.1;65
68891;BME280;55932;48.702;8.884;2022-09-24T05:21:21;95710;;;11.1;65
68891;BME280;55932;48.702;8.884;2022-09-24T05:26:15;95710;;;11;65
68891;BME280;55932;48.702;8.884;2022-09-24T05:28:46;95710;;;10.9;65.5
68891;BME280;55932;48.702;8.884;2022-09-24T05:36:18;95720;;;10.9;65
68891;BME280;55932;48.702;8.884;2022-09-24T05:38:54;95720;;;10.9;65
68891;BME280;55932;48.702;8.884;2022-09-24T05:41:20;95720;;;10.9;65
68891;BME280;55932;48.702;8.884;2022-09-24T05:43:51;95720;;;10.9;65
68891;BME280;55932;48.702;8.884;2022-09-24T05:46:21;95720;;;11;65
68891;BME280;55932;48.702;8.884;2022-09-24T05:48:52;95720;;;11.1;65
68891;BME280;55932;48.702;8.884;2022-09-24T05:51:30;95720;;;11.2;65
68891;BME280;55932;48.702;8.884;2022-09-24T05:54:00;95720;;;11.3;65
68891;BME280;55932;48.702;8.884;2022-09-24T05:56:31;95720;;;11.4;64.5
68891;BME280;55932;48.702;8.884;2022-09-24T06:03:57;95720;;;11.6;64.5
68891;BME280;55932;48.702;8.884;2022-09-24T06:06:28;95730;;;11.7;64.5
68891;BME280;55932;48.702;8.884;2022-09-24T06:08:59;95730;;;11.8;64
68891;BME280;55932;48.702;8.884;2022-09-24T06:11:30;95730;;;11.9;64
68891;BME280;55932;48.702;8.884;2022-09-24T06:16:37;95740;;;12.3;64
68891;BME280;55932;48.702;8.884;2022-09-24T06:19:08;95750;;;12.5;63.5
68891;BME280;55932;48.702;8.884;2022-09-24T06:21:39;95750;;;12.6;63.5
68891;BME280;55932;48.702;8.884;2022-09-24T06:24:03;95740;;;12.8;63.5
68891;BME280;55932;48.702;8.884;2022-09-24T06:34:06;95740;;;13;63.5
68891;BME280;55932;48.702;8.884;2022-09-24T06:36:37;95740;;;13.1;63.5
68891;BME280;55932;48.702;8.884;2022-09-24T06:39:08;95750;;;13.1;63.5
68891;BME280;55932;48.702;8.884;2022-09-24T06:41:39;95750;;;13;64
68891;BME280;55932;48.702;8.884;2022-09-24T06:44:16;95750;;;13.1;64
68891;BME280;55932;48.702;8.884;2022-09-24T06:46:47;95750;;;13.1;63.5
68891;BME280;55932;48.702;8.884;2022-09-24T06:49:25;95750;;;13.3;63.5
68891;BME280;55932;48.702;8.884;2022-09-24T06:54:13;95750;;;13.6;63
68891;BME280;55932;48.702;8.884;2022-09-24T06:56:44;95750;;;13.6;63.5
68891;BME280;55932;48.702;8.884;2022-09-24T06:59:14;95750;;;13.7;63
68891;BME280;55932;48.702;8.884;2022-09-24T07:01:45;95760;;;13.8;63
68891;BME280;55932;48.702;8.884;2022-09-24T07:04:16;95750;;;13.9;63
68891;BME280;55932;48.702;8.884;2022-09-24T07:06:46;95760;;;13.9;63
68891;BME280;55932;48.702;8.884;2022-09-24T07:09:17;95760;;;14;63
68891;BME280;55932;48.702;8.884;2022-09-24T07:11:48;95760;;;14;63
68891;BME280;55932;48.702;8.884;2022-09-24T07:19:33;95760;;;14;63
68891;BME280;55932;48.702;8.884;2022-09-24T07:21:57;95760;;;14.1;63
68891;BME280;55932;48.702;8.884;2022-09-24T07:24:28;95770;;;14.2;63
68891;BME280;55932;48.702;8.884;2022-09-24T07:26:59;95760;;;14.1;63
68891;BME280;55932;48.702;8.884;2022-09-24T07:29:31;95770;;;14.1;63
68891;BME280;55932;48.702;8.884;2022-09-24T07:32:02;95770;;;14.1;63
68891;BME280;55932;48.702;8.884;2022-09-24T07:37:02;95780;;;14.2;63
68891;BME280;55932;48.702;8.884;2022-09-24T07:39:33;95780;;;14.1;63
68891;BME280;55932;48.702;8.884;2022-09-24T07:42:04;95790;;;14.1;63.5
68891;BME280;55932;48.702;8.884;2022-09-24T07:49:49;95790;;;14;63.5
68891;BME280;55932;48.702;8.884;2022-09-24T07:52:25;95790;;;14;63.5
68891;BME280;55932;48.702;8.884;2022-09-24T07:54:43;95790;;;14;63.5
68891;BME280;55932;48.702;8.884;2022-09-24T07:59:37;95790;;;13.9;63
68891;BME280;55932;48.702;8.884;2022-09-24T08:02:08;95790;;;13.8;63
68891;BME280;55932;48.702;8.884;2022-09-24T08:07:02;95790;;;13.8;63
68891;BME280;55932;48.702;8.884;2022-09-24T08:17:05;95800;;;13.5;63.5
68891;BME280;55932;48.702;8.884;2022-09-24T08:19:36;95800;;;13.5;63.5
68891;BME280;55932;48.702;8.884;2022-09-24T08:22:07;95800;;;13.4;63.5
68891;BME280;55932;48.702;8.884;2022-09-24T08:27:15;95800;;;13.4;64
68891;BME280;55932;48.702;8.884;2022-09-24T08:29:46;95800;;;13.3;64
68891;BME280;55932;48.702;8.884;2022-09-24T08:32:16;95800;;;13.4;64
68891;BME280;55932;48.702;8.884;2022-09-24T08:34:40;95800;;;13.7;63.5
68891;BME280;55932;48.702;8.884;2022-09-24T08:42:14;95800;;;14;63
68891;BME280;55932;48.702;8.884;2022-09-24T08:44:44;95800;;;14;63
68891;BME280;55932;48.702;8.884;2022-09-24T08:47:17;95800;;;13.9;63.5
68891;BME280;55932;48.702;8.884;2022-09-24T08:49:46;95810;;;13.8;63.5
68891;BME280;55932;48.702;8.884;2022-09-24T08:54:52;95810;;;13.8;63.5
68891;BME280;55932;48.702;8.884;2022-09-24T08:57:23;95800;;;13.8;63.5
68891;BME280;55932;48.702;8.884;2022-09-24T08:59:54;95800;;;14.1;63
68891;BME280;55932;48.702;8.884;2022-09-24T09:02:29;95800;;;14.4;63
68891;BME280;55932;48.702;8.884;2022-09-24T09:14:55;95800;;;14.8;62.5
68891;BME280;55932;48.702;8.884;2022-09-24T09:17:32;95810;;;14.8;62.5
68891;BME280;55932;48.702;8.884;2022-09-24T09:19:56;95810;;;14.6;63
68891;BME280;55932;48.702;8.884;2022-09-24T09:25:03;95810;;;14.5;63
68891;BME280;55932;48.702;8.884;2022-09-24T09:27:33;95800;;;14.7;63
68891;BME280;55932;48.702;8.884;2022-09-24T09:30:37;95800;;;14.9;62.5
68891;BME280;55932;48.702;8.884;2022-09-24T09:45:07;95790;;;15.1;62.5
68891;BME280;55932;48.702;8.884;2022-09-24T09:47:35;95790;;;15.2;62.5
68891;BME280;55932;48.702;8.884;2022-09-24T09:50:05;95790;;;15.3;62
68891;BME280;55932;48.702;8.884;2022-09-24T09:52:34;95800;;;15.2;62.5
68891;BME280;55932;48.702;8.884;2022-09-24T09:55:04;95800;;;15.1;62.5
68891;BME280;55932;48.702;8.884;2022-09-24T09:57:35;95800;;;15.1;63
68891;BME280;55932;48.702;8.884;2022-09-24T10:00:44;95810;;;14.8;63
68891;BME280;55932;48.702;8.884;2022-09-24T10:02:43;95810;;;14.6;63
68891;BME280;55932;48.702;8.884;2022-09-24T10:05:17;95800;;;14.6;63.5
68891;BME280;55932;48.702;8.884;2022-09-24T10:12:40;95800;;;14.5;63.5
68891;BME280;55932;48.702;8.884;2022-09-24T10:15:15;95800;;;14.7;63
68891;BME280;55932;48.702;8.884;2022-09-24T10:17:42;95800;;;14.8;63
68891;BME280;55932;48.702;8.884;2022-09-24T10:20:16;95790;;;14.8;63
68891;BME280;55932;48.702;8.884;2022-09-24T10:22:45;95800;;;15;63
68891;BME280;55932;48.702;8.884;2022-09-24T10:25:16;95800;;;15.1;62.5
68891;BME280;55932;48.702;8.884;2022-09-24T10:27:45;95800;;;15.2;62.5
68891;BME280;55932;48.702;8.884;2022-09-24T10:30:16;95800;;;15.4;62.5
68891;BME280;55932;48.702;8.884;2022-09-24T10:32:54;95800;;;15.9;62
68891;BME280;55932;48.702;8.884;2022-09-24T10:35:30;95790;;;16.2;61.5
68891;BME280;55932;48.702;8.884;2022-09-24T10:40:20;95790;;;17.5;60
68891;BME280;55932;48.702;8.884;2022-09-24T10:48:02;95790;;;17.4;60.5
68891;BME280;55932;48.702;8.884;2022-09-24T10:50:32;95790;;;17.3;61
68891;BME280;55932;48.702;8.884;2022-09-24T10:52:59;95790;;;17.2;61
68891;BME280;55932;48.702;8.884;2022-09-24T10:55:32;95790;;;17.3;61
68891;BME280;55932;48.702;8.884;2022-09-24T10:57:56;95780;;;17.1;61.5
68891;BME280;55932;48.702;8.884;2022-09-24T11:00:27;95780;;;17.6;61
68891;BME280;55932;48.702;8.884;2022-09-24T11:08:00;95790;;;18;61
68891;BME280;55932;48.702;8.884;2022-09-24T11:10:31;95790;;;17.6;61
68891;BME280;55932;48.702;8.884;2022-09-24T11:13:39;95790;;;17.4;61.5
68891;BME280;55932;48.702;8.884;2022-09-24T11:18:08;95790;;;17;62
68891;BME280;55932;48.702;8.884;2022-09-24T11:23:21;95790;;;17;62
68891;BME280;55932;48.702;8.884;2022-09-24T11:25:37;95790;;;17;62.5
68891;BME280;55932;48.702;8.884;2022-09-24T11:28:06;95790;;;16.9;62.5
68891;BME280;55932;48.702;8.884;2022-09-24T11:35:43;95780;;;16.5;62.5
68891;BME280;55932;48.702;8.884;2022-09-24T11:38:12;95790;;;16.4;62.5
68891;BME280;55932;48.702;8.884;2022-09-24T11:41:12;95780;;;16.2;63
68891;BME280;55932;48.702;8.884;2022-09-24T11:45:56;95790;;;15.9;63
68891;BME280;55932;48.702;8.884;2022-09-24T11:48:26;95780;;;15.7;63.5
68891;BME280;55932;48.702;8.884;2022-09-24T11:50:53;95780;;;15.6;63.5
68891;BME280;55932;48.702;8.884;2022-09-24T11:53:39;95780;;;15.5;63.5
68891;BME280;55932;48.702;8.884;2022-09-24T11:55:54;95770;;;15.2;64
68891;BME280;55932;48.702;8.884;2022-09-24T11:58:34;95780;;;15;64
68891;BME280;55932;48.702;8.884;2022-09-24T12:03:21;95770;;;14.8;64.5
68891;BME280;55932;48.702;8.884;2022-09-24T12:05:44;95760;;;14.7;64.5
68891;BME280;55932;48.702;8.884;2022-09-24T12:08:15;95770;;;14.7;64.5
68891;BME280;55932;48.702;8.884;2022-09-24T12:10:48;95770;;;14.7;64.5
68891;BME280;55932;48.702;8.884;2022-09-24T12:13:17;95760;;;14.7;64.5
68891;BME280;55932;48.702;8.884;2022-09-24T12:20:49;95750;;;15.1;64
68891;BME280;55932;48.702;8.884;2022-09-24T12:23:20;95760;;;15.4;63.5
68891;BME280;55932;48.702;8.884;2022-09-24T12:25:56;95750;;;15.7;63
68891;BME280;55932;48.702;8.884;2022-09-24T12:30:57;95750;;;16.1;62.5
68891;BME280;55932;48.702;8.884;2022-09-24T12:33:34;95750;;;16;63
68891;BME280;55932;48.702;8.884;2022-09-24T12:39:27;95750;;;16.2;62.5
68891;BME280;55932;48.702;8.884;2022-09-24T12:40:58;95750;;;16.2;62.5
68891;BME280;55932;48.702;8.884;2022-09-24T12:43:27;95750;;;16.3;62.5
68891;BME280;55932;48.702;8.884;2022-09-24T12:55:59;95740;;;15.9;63
68891;BME280;55932;48.702;8.884;2022-09-24T13:01:26;95730;;;15.9;63
68891;BME280;55932;48.702;8.884;2022-09-24T13:03:43;95730;;;16;63
68891;BME280;55932;48.702;8.884;2022-09-24T13:06:45;95730;;;16.1;63
68891;BME280;55932;48.702;8.884;2022-09-24T13:11:38;95730;;;16.3;62.5
68891;BME280;55932;48.702;8.884;2022-09-24T13:13:38;95730;;;16.2;62.5
68891;BME280;55932;48.702;8.884;2022-09-24T13:16:22;95730;;;16.3;63
68891;BME280;55932;48.702;8.884;2022-09-24T13:18:40;95730;;;16.5;62.5
68891;BME280;55932;48.702;8.884;2022-09-24T13:21:20;95730;;;16.5;62
68891;BME280;55932;48.702;8.884;2022-09-24T13:23:48;95720;;;16.5;62.5
68891;BME280;55932;48.702;8.884;2022-09-24T13:31:26;95730;;;17.6;61.5
68891;BME280;55932;48.702;8.884;2022-09-24T13:33:45;95730;;;17.7;61.5
68891;BME280;55932;48.702;8.884;2022-09-24T13:36:54;95730;;;18.1;61
68891;BME280;55932;48.702;8.884;2022-09-24T13:38:44;95730;;;18.4;60.5
68891;BME280;55932;48.702;8.884;2022-09-24T13:41:13;95730;;;18.2;60.5
68891;BME280;55932;48.702;8.884;2022-09-24T13:43:44;95720;;;18.2;61
68891;BME280;55932;48.702;8.884;2022-09-24T13:48:46;95720;;;17.9;62
68891;BME280;55932;48.702;8.884;2022-09-24T13:51:13;95720;;;18.2;62
68891;BME280;55932;48.702;8.884;2022-09-24T13:53:47;95720;;;18.2;61.5
68891;BME280;55932;48.702;8.884;2022-09-24T13:56:17;95720;;;17.7;62
68891;BME280;55932;48.702;8.884;2022-09-24T14:01:23;95720;;;17.4;62.5
68891;BME280;55932;48.702;8.884;2022-09-24T14:03:55;95720;;;17.5;62
68891;BME280;55932;48.702;8.884;2022-09-24T14:06:56;95720;;;17.5;62.5
68891;BME280;55932;48.702;8.884;2022-09-24T14:08:48;95720;;;17.6;63
68891;BME280;55932;48.702;8.884;2022-09-24T14:11:20;95720;;;18.1;63.5
68891;BME280;55932;48.702;8.884;2022-09-24T14:19:11;95720;;;18.1;62.5
68891;BME280;55932;48.702;8.884;2022-09-24T14:21:25;95710;;;18.1;62.5
68891;BME280;55932;48.702;8.884;2022-09-24T14:23:54;95710;;;18.2;62
68891;BME280;55932;48.702;8.884;2022-09-24T14:29:03;95700;;;17.7;62.5
68891;BME280;55932;48.702;8.884;2022-09-24T14:31:40;95710;;;17.5;62.5
68891;BME280;55932;48.702;8.884;2022-09-24T14:34:02;95700;;;17.4;63
68891;BME280;55932;48.702;8.884;2022-09-24T14:36:27;95700;;;17.4;62.5
68891;BME280;55932;48.702;8.884;2022-09-24T14:44:01;95700;;;17.4;63
68891;BME280;55932;48.702;8.884;2022-09-24T14:46:31;95700;;;17.4;63
68891;BME280;55932;48.702;8.884;2022-09-24T14:49:03;95700;;;17.6;62.5
68891;BME280;55932;48.702;8.884;2022-09-24T14:51:31;95700;;;17.6;62.5
68891;BME280;55932;48.702;8.884;2022-09-24T14:54:04;95700;;;17.5;62.5
68891;BME280;55932;48.702;8.884;2022-09-24T14:56:40;95700;;;17.3;63.5
68891;BME280;55932;48.702;8.884;2022-09-24T14:59:11;95690;;;17.5;63
68891;BME280;55932;48.702;8.884;2022-09-24T15:04:16;95690;;;17.1;64
68891;BME280;55932;48.702;8.884;2022-09-24T15:06:43;95680;;;16.9;64.5
68891;BME280;55932;48.702;8.884;2022-09-24T15:09:19;95680;;;16.8;64.5
68891;BME280;55932;48.702;8.884;2022-09-24T15:11:51;95680;;;16.8;64.5
68891;BME280;55932;48.702;8.884;2022-09-24T15:19:24;95690;;;17.2;63.5
68891;BME280;55932;48.702;8.884;2022-09-24T15:21:54;95690;;;17.3;63.5
68891;BME280;55932;48.702;8.884;2022-09-24T15:24:18;95680;;;17.6;63.5
68891;BME280;55932;48.702;8.884;2022-09-24T15:26:59;95690;;;17.5;63.5
68891;BME280;55932;48.702;8.884;2022-09-24T15:29:20;95680;;;17.4;63
68891;BME280;55932;48.702;8.884;2022-09-24T15:31:51;95680;;;17.3;63.5
68891;BME280;55932;48.702;8.884;2022-09-24T15:34:27;95690;;;17.3;63.5
68891;BME280;55932;48.702;8.884;2022-09-24T15:36:59;95690;;;17.4;63.5
68891;BME280;55932;48.702;8.884;2022-09-24T15:39:28;95690;;;17.4;63.5
68891;BME280;55932;48.702;8.884;2022-09-24T15:44:24;95680;;;16.8;64
68891;BME280;55932;48.702;8.884;2022-09-24T15:49:24;95690;;;16.3;65
68891;BME280;55932;48.702;8.884;2022-09-24T15:51:56;95690;;;16;65
68891;BME280;55932;48.702;8.884;2022-09-24T15:59:33;95680;;;15.7;65.5
68891;BME280;55932;48.702;8.884;2022-09-24T16:02:05;95680;;;15.5;65.5
68891;BME280;55932;48.702;8.884;2022-09-24T16:04:33;95690;;;15.5;65.5
68891;BME280;55932;48.702;8.884;2022-09-24T16:07:04;95690;;;15.5;65.5
68891;BME280;55932;48.702;8.884;2022-09-24T16:09:28;95690;;;15.6;65.5
68891;BME280;55932;48.702;8.884;2022-09-24T16:14:37;95680;;;15.6;65
68891;BME280;55932;48.702;8.884;2022-09-24T16:17:07;95680;;;15.5;65.5
68891;BME280;55932;48.702;8.884;2022-09-24T16:19:37;95680;;;15.4;65.5
68891;BME280;55932;48.702;8.884;2022-09-24T16:22:07;95680;;;15.2;65.5
68891;BME280;55932;48.702;8.884;2022-09-24T16:27:02;95680;;;15.1;65.5
68891;BME280;55932;48.702;8.884;2022-09-24T16:29:32;95690;;;15.1;65.5
68891;BME280;55932;48.702;8.884;2022-09-24T16:32:10;95680;;;15;66
68891;BME280;55932;48.702;8.884;2022-09-24T16:37:06;95690;;;15;65.5
68891;BME280;55932;48.702;8.884;2022-09-24T16:42:13;95690;;;14.8;65.5
68891;BME280;55932;48.702;8.884;2022-09-24T16:44:43;95680;;;14.7;65.5
68891;BME280;55932;48.702;8.884;2022-09-24T16:47:13;95690;;;14.6;66
68891;BME280;55932;48.702;8.884;2022-09-24T16:52:07;95690;;;14.5;66
68891;BME280;55932;48.702;8.884;2022-09-24T16:54:41;95690;;;14.4;66
68891;BME280;55932;48.702;8.884;2022-09-24T16:57:10;95680;;;14.3;66
68891;BME280;55932;48.702;8.884;2022-09-24T17:00:22;95690;;;14.2;66
68891;BME280;55932;48.702;8.884;2022-09-24T17:02:18;95680;;;14.1;66
68891;BME280;55932;48.702;8.884;2022-09-24T17:04:42;95690;;;14;66.5
68891;BME280;55932;48.702;8.884;2022-09-24T17:07:13;95680;;;14;66.5
68891;BME280;55932;48.702;8.884;2022-09-24T17:14:45;95690;;;13.8;66.5
68891;BME280;55932;48.702;8.884;2022-09-24T17:17:16;95690;;;13.8;66.5
68891;BME280;55932;48.702;8.884;2022-09-24T17:19:47;95700;;;13.9;66.5
68891;BME280;55932;48.702;8.884;2022-09-24T17:22:18;95700;;;13.9;66.5
68891;BME280;55932;48.702;8.884;2022-09-24T17:27:16;95700;;;13.8;66.5
68891;BME280;55932;48.702;8.884;2022-09-24T17:29:43;95710;;;13.7;66.5
68891;BME280;55932;48.702;8.884;2022-09-24T17:32:14;95720;;;13.8;66.5
68891;BME280;55932;48.702;8.884;2022-09-24T17:39:52;95730;;;13.9;66.5
68891;BME280;55932;48.702;8.884;2022-09-24T17:42:24;95730;;;13.9;66
68891;BME280;55932;48.702;8.884;2022-09-24T17:44:54;95730;;;13.9;66
68891;BME280;55932;48.702;8.884;2022-09-24T17:47:18;95730;;;13.8;66.5
68891;BME280;55932;48.702;8.884;2022-09-24T17:54:51;95720;;;13.7;66.5
68891;BME280;55932;48.702;8.884;2022-09-24T17:57:41;95730;;;13.8;66.5
68891;BME280;55932;48.702;8.884;2022-09-24T18:05:06;95720;;;13.9;66
68891;BME280;55932;48.702;8.884;2022-09-24T18:07:36;95730;;;13.8;66
68891;BME280;55932;48.702;8.884;2022-09-24T18:12:40;95720;;;13.8;66
68891;BME280;55932;48.702;8.884;2022-09-24T18:15:10;95730;;;13.8;66
68891;BME280;55932;48.702;8.884;2022-09-24T18:17:40;95740;;;13.9;66
68891;BME280;55932;48.702;8.884;2022-09-24T18:27:53;95770;;;13.8;66
68891;BME280;55932;48.702;8.884;2022-09-24T18:30:36;95770;;;13.8;65.5
68891;BME280;55932;48.702;8.884;2022-09-24T18:35:13;95760;;;13.8;65.5
68891;BME280;55932;48.702;8.884;2022-09-24T18:37:44;95760;;;13.7;65.5
68891;BME280;55932;48.702;8.884;2022-09-24T18:40:13;95770;;;13.6;65.5
68891;BME280;55932;48.702;8.884;2022-09-24T18:47:34;95760;;;13.2;66.5
68891;BME280;55932;48.702;8.884;2022-09-24T18:50:04;95760;;;13.1;66.5
68891;BME280;55932;48.702;8.884;2022-09-24T18:52:34;95770;;;13.1;66.5
68891;BME280;55932;48.702;8.884;2022-09-24T18:55:04;95770;;;13.1;66.5
68891;BME280;55932;48.702;8.884;2022-09-24T18:57:35;95770;;;13.1;66.5
68891;BME280;55932;48.702;8.884;2022-09-24T19:00:05;95770;;;13.1;66
68891;BME280;55932;48.702;8.884;2022-09-24T19:02:36;95780;;;13.1;66.5
68891;BME280;55932;48.702;8.884;2022-09-24T19:05:06;95770;;;13;66.5
68891;BME280;55932;48.702;8.884;2022-09-24T19:07:37;95770;;;13;66.5
68891;BME280;55932;48.702;8.884;2022-09-24T19:10:20;95760;;;13.1;66.5
68891;BME280;55932;48.702;8.884;2022-09-24T19:12:49;95760;;;12.9;66.5
68891;BME280;55932;48.702;8.884;2022-09-24T19:15:28;95760;;;12.9;66.5
68891;BME280;55932;48.702;8.884;2022-09-24T19:22:38;95750;;;12.6;67
68891;BME280;55932;48.702;8.884;2022-09-24T19:25:08;95750;;;12.7;66.5
68891;BME280;55932;48.702;8.884;2022-09-24T19:27:39;95750;;;12.8;66.5
68891;BME280;55932;48.702;8.884;2022-09-24T19:30:10;95750;;;12.8;66.5
68891;BME280;55932;48.702;8.884;2022-09-24T19:32:40;95760;;;12.8;66.5
68891;BME280;55932;48.702;8.884;2022-09-24T19:40:12;95760;;;12.8;66.5
68891;BME280;55932;48.702;8.884;2022-09-24T19:42:42;95760;;;12.7;66.5
68891;BME280;55932;48.702;8.884;2022-09-24T19:45:13;95750;;;12.7;66.5
68891;BME280;55932;48.702;8.884;2022-09-24T19:50:25;95750;;;12.6;66.5
68891;BME280;55932;48.702;8.884;2022-09-24T19:55:26;95750;;;12.4;67.5
68891;BME280;55932;48.702;8.884;2022-09-24T19:57:56;95760;;;12.4;67
68891;BME280;55932;48.702;8.884;2022-09-24T20:00:26;95750;;;12.3;67
68891;BME280;55932;48.702;8.884;2022-09-24T20:05:39;95750;;;12.1;67.5
68891;BME280;55932;48.702;8.884;2022-09-24T20:08:10;95750;;;12;67.5
68891;BME280;55932;48.702;8.884;2022-09-24T20:10:40;95750;;;11.9;67.5
68891;BME280;55932;48.702;8.884;2022-09-24T20:13:11;95750;;;11.8;67.5
68891;BME280;55932;48.702;8.884;2022-09-24T20:18:00;95750;;;11.6;67.5
68891;BME280;55932;48.702;8.884;2022-09-24T20:20:30;95740;;;11.6;68